Time;durP1;ratioP1;P1;durP2;ratioP2;P2;SDS_P1;SDS_P2;PMS_P1;PMS_P2;Temp;Humidity;BMP_temperature;BMP_pressure;BME280_temperature;BME280_humidity;BME280_pressure;Samples;Min_cycle;Max_cycle;Signal;HPM_P1;HPM_P2
2023/12/13 00:00:58;;;;;;;6.13;3.70;;;;;;;6.48;100.00;99325.28;6306220;22;20010;-79
2023/12/13 00:03:23;;;;;;;8.77;3.50;;;;;;;6.48;100.00;99325.28;6279010;22;20011;-80
2023/12/13 00:05:49;;;;;;;8.63;3.47;;;;;;;6.62;100.00;99333.88;6279202;22;20003;-80
2023/12/13 00:08:14;;;;;;;11.63;3.95;;;;;;;6.56;100.00;99330.28;6305992;22;20388;-78
2023/12/13 00:10:40;;;;;;;4.78;2.88;;;;;;;6.48;100.00;99315.47;6305956;22;20009;-80
2023/12/13 00:13:05;;;;;;;5.68;3.53;;;;;;;6.53;100.00;99326.22;6306078;22;20010;-80
2023/12/13 00:15:31;;;;;;;10.07;3.78;;;;;;;6.70;100.00;99352.16;6278391;22;20015;-79
2023/12/13 00:17:56;;;;;;;10.05;3.67;;;;;;;6.64;100.00;99350.38;6278842;22;20037;-80
2023/12/13 00:20:21;;;;;;;7.32;3.00;;;;;;;6.62;100.00;99333.88;6278370;22;20003;-80
2023/12/13 00:22:49;;;;;;;10.80;3.47;;;;;;;6.78;100.00;99370.44;6277889;22;20089;-79
2023/12/13 00:25:14;;;;;;;5.70;2.97;;;;;;;6.65;100.00;99341.38;6305524;22;20007;-79
2023/12/13 00:27:40;;;;;;;5.50;3.42;;;;;;;6.51;100.00;99322.16;6278190;22;20151;-80
2023/12/13 00:30:06;;;;;;;7.38;3.38;;;;;;;6.62;100.00;99341.84;6305904;22;20057;-79
2023/12/13 00:32:32;;;;;;;5.85;3.40;;;;;;;6.56;100.00;99330.28;6278391;22;20014;-80
2023/12/13 00:34:57;;;;;;;10.90;4.35;;;;;;;6.56;100.00;99327.63;6305546;22;20030;-80
2023/12/13 00:37:23;;;;;;;6.88;4.32;;;;;;;6.45;100.00;99323.06;6278324;22;20326;-79
2023/12/13 00:39:48;;;;;;;9.63;3.10;;;;;;;6.49;100.00;99327.72;6278393;22;20018;-79
2023/12/13 00:42:14;;;;;;;10.63;3.33;;;;;;;6.29;100.00;99297.13;6278057;22;20014;-79
2023/12/13 00:44:39;;;;;;;11.20;3.63;;;;;;;6.26;100.00;99298.41;6305710;22;20026;-79
2023/12/13 00:47:05;;;;;;;7.72;3.38;;;;;;;6.28;100.00;99296.34;6278116;22;20003;-79
2023/12/13 00:49:30;;;;;;;6.30;3.17;;;;;;;6.35;100.00;99304.19;6278128;22;20004;-79
2023/12/13 00:52:03;;;;;;;7.85;3.45;;;;;;;6.32;100.00;99292.19;6278552;22;20323;-78
2023/12/13 00:54:34;;;;;;;5.30;2.92;;;;;;;6.47;100.00;99315.69;6278399;22;20389;-79
2023/12/13 00:57:06;;;;;;;5.63;2.90;;;;;;;6.47;100.00;99311.19;6278383;22;20082;-78
2023/12/13 00:59:32;;;;;;;10.02;3.38;;;;;;;6.36;100.00;99298.69;6305766;22;20527;-79
2023/12/13 01:01:57;;;;;;;7.35;3.28;;;;;;;6.26;100.00;99271.84;6278158;22;20027;-77
2023/12/13 01:04:22;;;;;;;7.95;3.42;;;;;;;6.43;100.00;99293.28;6305526;22;20008;-78
2023/12/13 01:06:48;;;;;;;8.23;3.03;;;;;;;6.52;100.00;99310.50;6305384;22;19999;-79
2023/12/13 01:09:13;;;;;;;9.98;3.65;;;;;;;6.67;100.00;99336.69;6305350;22;20026;-80
2023/12/13 01:11:38;;;;;;;7.63;3.30;;;;;;;6.74;100.00;99342.69;6305563;22;20010;-79
2023/12/13 01:14:04;;;;;;;6.90;3.85;;;;;;;6.71;100.00;99337.84;6278260;22;20041;-78
2023/12/13 01:16:29;;;;;;;6.00;3.22;;;;;;;6.76;100.00;99353.91;6305360;22;20011;-79
2023/12/13 01:18:55;;;;;;;5.53;3.40;;;;;;;6.76;100.00;99338.78;6305421;22;20030;-79
2023/12/13 01:21:20;;;;;;;5.80;3.05;;;;;;;6.75;100.00;99342.47;6278293;22;20007;-79
2023/12/13 01:23:45;;;;;;;11.73;4.45;;;;;;;6.75;100.00;99345.13;6305361;22;20434;-77
2023/12/13 01:26:11;;;;;;;6.57;3.65;;;;;;;6.69;100.00;99339.91;6278051;22;20090;-77
2023/12/13 01:28:36;;;;;;;16.08;4.55;;;;;;;6.70;100.00;99338.88;6305229;22;20003;-77
2023/12/13 01:31:06;;;;;;;8.82;4.43;;;;;;;6.71;100.00;99337.84;6305273;22;20027;-78
2023/12/13 01:33:32;;;;;;;10.63;4.05;;;;;;;6.71;100.00;99341.31;6279349;22;19999;-77
2023/12/13 01:35:57;;;;;;;6.15;3.42;;;;;;;6.68;100.00;99330.31;6308745;22;20007;-77
2023/12/13 01:38:22;;;;;;;10.63;4.30;;;;;;;6.67;100.00;99329.53;6308771;22;20007;-77
2023/12/13 01:40:51;;;;;;;9.48;3.88;;;;;;;6.74;100.00;99340.03;6281205;22;20011;-77
2023/12/13 01:43:22;;;;;;;8.05;4.53;;;;;;;6.74;100.00;99340.03;6308531;22;20003;-77
2023/12/13 01:45:48;;;;;;;8.35;4.40;;;;;;;6.69;100.00;99335.41;6308580;22;20040;-78
2023/12/13 01:48:13;;;;;;;11.70;3.90;;;;;;;6.77;100.00;99339.59;6280942;22;20038;-77
2023/12/13 01:50:39;;;;;;;7.47;4.13;;;;;;;6.69;100.00;99339.91;6308572;22;20373;-79
2023/12/13 01:53:06;;;;;;;7.38;3.45;;;;;;;6.73;100.00;99347.19;6308597;22;19999;-80
2023/12/13 01:55:31;;;;;;;9.23;4.50;;;;;;;6.71;100.00;99349.28;6281236;22;20336;-79
2023/12/13 01:57:57;;;;;;;8.63;4.32;;;;;;;6.72;100.00;99350.09;6308696;22;20003;-79
2023/12/13 02:00:23;;;;;;;8.02;4.72;;;;;;;6.72;100.00;99352.75;6280946;22;20007;-78
2023/12/13 02:02:49;;;;;;;10.82;4.60;;;;;;;6.71;100.00;99345.81;6281006;22;20006;-78
2023/12/13 02:05:16;;;;;;;10.65;4.57;;;;;;;6.67;100.00;99350.78;6308457;22;20014;-78
2023/12/13 02:07:42;;;;;;;13.50;5.47;;;;;;;6.71;100.00;99348.47;6281043;22;20328;-79
2023/12/13 02:10:08;;;;;;;16.38;5.68;;;;;;;6.74;100.00;99353.31;6280949;22;20042;-79
2023/12/13 02:12:34;;;;;;;9.90;4.18;;;;;;;6.72;100.00;99350.91;6308214;22;20332;-80
2023/12/13 02:15:00;;;;;;;9.55;4.60;;;;;;;6.77;100.00;99355.53;6308443;22;20029;-78
2023/12/13 02:17:25;;;;;;;14.80;5.40;;;;;;;6.72;100.00;99350.09;6308171;22;20031;-78
2023/12/13 02:19:51;;;;;;;19.27;5.70;;;;;;;6.69;100.00;99346.03;6308270;22;20014;-79
2023/12/13 02:22:16;;;;;;;9.23;4.93;;;;;;;6.79;100.00;99350.78;6308208;22;20003;-79
2023/12/13 02:24:44;;;;;;;13.50;6.53;;;;;;;6.76;100.00;99345.94;6308278;22;20026;-79
2023/12/13 02:27:10;;;;;;;15.43;6.38;;;;;;;6.81;100.00;99343.41;6308713;22;20420;-79
2023/12/13 02:29:35;;;;;;;12.88;6.18;;;;;;;6.76;100.00;99344.09;6308147;22;20007;-79
2023/12/13 02:32:00;;;;;;;14.52;5.72;;;;;;;6.70;100.00;99333.56;6308155;22;20014;-78
2023/12/13 02:34:26;;;;;;;12.95;4.85;;;;;;;6.71;100.00;99333.34;6308119;22;20023;-78
2023/12/13 02:36:51;;;;;;;13.23;6.50;;;;;;;6.72;100.00;99334.16;6308108;22;20395;-78
2023/12/13 02:39:16;;;;;;;13.35;5.72;;;;;;;6.76;100.00;99343.28;6308171;22;20026;-77
2023/12/13 02:41:42;;;;;;;16.08;5.38;;;;;;;6.71;100.00;99328.03;6280647;22;20045;-79
2023/12/13 02:44:07;;;;;;;12.38;4.80;;;;;;;6.73;100.00;99333.13;6280246;22;20007;-78
2023/12/13 02:46:32;;;;;;;13.40;5.18;;;;;;;6.73;100.00;99327.81;6305816;22;20010;-78
2023/12/13 02:48:58;;;;;;;15.60;5.78;;;;;;;6.76;100.00;99332.66;6306085;22;20463;-79
2023/12/13 02:51:24;;;;;;;13.45;6.00;;;;;;;6.73;100.00;99320.63;6278800;22;20138;-78
2023/12/13 02:53:49;;;;;;;12.05;5.30;;;;;;;6.76;100.00;99325.50;6278818;22;20416;-76
2023/12/13 02:56:14;;;;;;;8.93;5.00;;;;;;;6.80;100.00;99323.19;6306236;22;20014;-78
2023/12/13 02:58:40;;;;;;;14.05;5.50;;;;;;;6.82;100.00;99326.44;6278798;22;20003;-78
2023/12/13 03:01:06;;;;;;;14.35;5.60;;;;;;;6.83;100.00;99326.19;6306133;22;20007;-78
2023/12/13 03:03:31;;;;;;;16.40;5.22;;;;;;;6.86;100.00;99322.28;6306199;22;20425;-79
2023/12/13 03:05:57;;;;;;;15.63;4.60;;;;;;;6.84;100.00;99324.34;6306464;22;20031;-78
2023/12/13 03:08:22;;;;;;;11.30;5.50;;;;;;;6.87;100.00;99331.88;6305936;22;20041;-78
2023/12/13 03:10:47;;;;;;;17.33;6.57;;;;;;;6.80;100.00;99321.34;6278797;22;20003;-79
2023/12/13 03:13:13;;;;;;;14.55;5.22;;;;;;;6.86;100.00;99326.78;6306068;22;20313;-78
2023/12/13 03:15:38;;;;;;;11.15;5.80;;;;;;;6.80;100.00;99316.03;6278819;22;20007;-78
2023/12/13 03:18:03;;;;;;;12.00;4.88;;;;;;;6.82;100.00;99321.13;6278607;22;20014;-78
2023/12/13 03:20:30;;;;;;;19.85;5.53;;;;;;;6.82;100.00;99308.66;6278778;22;20003;-78
2023/12/13 03:22:56;;;;;;;10.75;5.05;;;;;;;6.85;100.00;99320.66;6305919;22;20003;-77
2023/12/13 03:25:21;;;;;;;11.52;4.95;;;;;;;6.82;100.00;99313.16;6306079;22;20007;-79
2023/12/13 03:27:46;;;;;;;13.30;5.25;;;;;;;6.79;100.00;99310.94;6306051;22;20007;-78
2023/12/13 03:30:12;;;;;;;20.00;5.28;;;;;;;6.83;100.00;99312.13;6306056;22;19999;-79
2023/12/13 03:32:41;;;;;;;20.02;5.47;;;;;;;6.83;100.00;99312.13;6278737;22;20469;-78
2023/12/13 03:35:06;;;;;;;15.27;4.47;;;;;;;6.88;100.00;99314.88;6305931;22;20078;-79
2023/12/13 03:37:33;;;;;;;14.30;5.53;;;;;;;6.82;100.00;99298.03;6305991;22;20376;-78
2023/12/13 03:39:58;;;;;;;18.38;5.63;;;;;;;6.88;100.00;99314.09;6278695;22;20468;-79
2023/12/13 03:42:24;;;;;;;13.63;4.88;;;;;;;6.82;100.00;99298.03;6305976;22;20018;-79
2023/12/13 03:44:49;;;;;;;13.82;4.57;;;;;;;6.83;100.00;99304.16;6306023;22;20417;-78
2023/12/13 03:47:14;;;;;;;25.83;4.78;;;;;;;6.91;100.00;99305.66;6305854;22;20011;-80
2023/12/13 03:49:40;;;;;;;11.77;4.63;;;;;;;6.83;100.00;99296.97;6305831;22;20007;-78
2023/12/13 03:52:07;;;;;;;9.73;3.95;;;;;;;6.78;100.00;99290.75;6278525;22;20003;-79
2023/12/13 03:54:32;;;;;;;12.43;4.20;;;;;;;6.81;100.00;99295.59;6278610;22;20003;-78
2023/12/13 03:56:58;;;;;;;21.25;5.72;;;;;;;6.73;100.00;99288.75;6278467;22;20456;-79
2023/12/13 03:59:23;;;;;;;15.38;5.10;;;;;;;6.78;100.00;99299.50;6305764;22;20031;-78
2023/12/13 04:01:49;;;;;;;14.70;5.50;;;;;;;6.78;100.00;99296.06;6278403;22;20005;-78
2023/12/13 04:04:14;;;;;;;16.20;5.10;;;;;;;6.77;100.00;99289.13;6278499;22;20478;-78
2023/12/13 04:06:39;;;;;;;16.00;4.75;;;;;;;6.71;100.00;99279.41;6305857;22;20000;-77
2023/12/13 04:09:04;;;;;;;21.23;6.03;;;;;;;6.80;100.00;99293.97;6305814;22;20010;-78
2023/12/13 04:11:30;;;;;;;17.58;5.38;;;;;;;6.84;100.00;99295.13;6278194;22;20011;-77
2023/12/13 04:13:55;;;;;;;18.98;5.80;;;;;;;6.87;100.00;99293.88;6278417;22;20014;-77
2023/12/13 04:16:20;;;;;;;19.52;4.72;;;;;;;6.86;100.00;99282.44;6305664;22;20106;-79
2023/12/13 04:18:46;;;;;;;20.23;5.97;;;;;;;6.82;100.00;99276.78;6305724;22;20137;-79
2023/12/13 04:21:11;;;;;;;21.30;5.85;;;;;;;6.89;100.00;99292.59;6278557;22;20056;-79
2023/12/13 04:23:36;;;;;;;23.63;5.18;;;;;;;6.89;100.00;99297.91;6278453;22;20008;-78
2023/12/13 04:26:02;;;;;;;19.95;5.20;;;;;;;6.87;100.00;99288.56;6305847;22;20011;-79
2023/12/13 04:28:27;;;;;;;18.15;5.50;;;;;;;6.84;100.00;99279.19;6305664;22;20007;-79
2023/12/13 04:30:52;;;;;;;16.25;4.60;;;;;;;6.94;100.00;99294.56;6278298;22;20011;-79
2023/12/13 04:33:18;;;;;;;19.58;5.55;;;;;;;6.91;100.00;99282.56;6278539;22;20009;-78
2023/12/13 04:35:44;;;;;;;16.75;4.70;;;;;;;6.90;100.00;99277.47;6305716;22;20011;-78
2023/12/13 04:38:10;;;;;;;20.95;5.50;;;;;;;6.94;100.00;99289.25;6305760;22;20003;-78
2023/12/13 04:40:35;;;;;;;19.48;6.20;;;;;;;6.90;100.00;99282.78;6305842;22;20017;-78
2023/12/13 04:43:02;;;;;;;18.25;4.68;;;;;;;6.90;100.00;99272.16;6305793;22;19999;-79
2023/12/13 04:45:27;;;;;;;24.60;5.45;;;;;;;6.92;100.00;99280.69;6305842;22;20397;-79
2023/12/13 04:47:52;;;;;;;18.45;5.63;;;;;;;6.91;100.00;99285.22;6305511;22;20220;-78
2023/12/13 04:50:18;;;;;;;22.17;5.50;;;;;;;6.92;100.00;99273.53;6305589;22;20030;-80
2023/12/13 04:52:43;;;;;;;17.95;6.30;;;;;;;7.02;100.00;99292.41;6278327;22;20029;-79
2023/12/13 04:55:08;;;;;;;16.88;5.30;;;;;;;7.04;100.00;99289.53;6305643;22;20368;-80
2023/12/13 04:57:34;;;;;;;12.15;4.65;;;;;;;7.02;100.00;99289.75;6278342;22;20074;-78
2023/12/13 04:59:59;;;;;;;18.45;6.28;;;;;;;7.03;100.00;99283.41;6305515;22;20429;-79
2023/12/13 05:02:25;;;;;;;17.77;5.03;;;;;;;6.99;100.00;99276.13;6305652;22;20022;-79
2023/12/13 05:04:50;;;;;;;22.55;5.65;;;;;;;7.06;100.00;99282.13;6278223;22;20010;-79
2023/12/13 05:07:16;;;;;;;17.38;5.50;;;;;;;7.04;100.00;99277.03;6305220;22;20008;-79
2023/12/13 05:09:41;;;;;;;21.98;5.85;;;;;;;7.03;100.00;99277.28;6305115;22;20035;-79
2023/12/13 05:12:07;;;;;;;18.75;5.53;;;;;;;7.09;100.00;99277.16;6305467;22;20034;-79
2023/12/13 05:14:32;;;;;;;18.20;6.05;;;;;;;7.06;100.00;99272.31;6278178;22;20432;-79
2023/12/13 05:16:58;;;;;;;23.42;7.13;;;;;;;7.05;100.00;99268.03;6305687;22;20007;-78
2023/12/13 05:19:23;;;;;;;20.63;5.70;;;;;;;7.08;100.00;99264.91;6277800;22;20015;-79
2023/12/13 05:21:48;;;;;;;19.98;5.78;;;;;;;7.10;100.00;99268.16;6277982;22;20007;-79
2023/12/13 05:24:14;;;;;;;20.45;6.45;;;;;;;7.09;100.00;99260.41;6305392;22;20014;-78
2023/12/13 05:26:39;;;;;;;22.73;6.57;;;;;;;7.06;100.00;99267.00;6305372;22;20011;-77
2023/12/13 05:29:04;;;;;;;19.08;5.45;;;;;;;7.09;100.00;99269.19;6305288;22;20082;-78
2023/12/13 05:31:30;;;;;;;21.95;5.63;;;;;;;7.10;100.00;99268.16;6277803;22;20065;-78
2023/12/13 05:33:55;;;;;;;23.30;6.63;;;;;;;7.10;100.00;99264.69;6277973;22;20007;-78
2023/12/13 05:36:21;;;;;;;19.80;5.03;;;;;;;7.05;100.00;99260.06;6305329;22;20003;-78
2023/12/13 05:38:46;;;;;;;21.60;6.20;;;;;;;7.11;100.00;99264.44;6305238;22;20007;-78
2023/12/13 05:41:12;;;;;;;25.40;6.13;;;;;;;7.13;100.00;99273.00;6305147;22;20027;-77
2023/12/13 05:43:37;;;;;;;13.27;4.65;;;;;;;7.11;100.00;99269.75;6305174;22;20004;-78
2023/12/13 05:46:04;;;;;;;16.35;5.07;;;;;;;7.10;100.00;99265.47;6305201;22;20007;-79
2023/12/13 05:48:31;;;;;;;24.52;5.10;;;;;;;7.06;100.00;99267.00;6277623;22;20014;-79
2023/12/13 05:50:57;;;;;;;16.45;5.93;;;;;;;7.07;100.00;99263.28;6305186;22;20467;-78
2023/12/13 05:53:22;;;;;;;19.70;5.55;;;;;;;7.10;100.00;99272.66;6305530;22;20007;-77
2023/12/13 05:55:48;;;;;;;33.15;6.15;;;;;;;7.07;100.00;99273.13;6277841;22;19999;-77
2023/12/13 05:58:13;;;;;;;19.95;5.55;;;;;;;7.07;100.00;99260.63;6305015;22;20337;-79
2023/12/13 06:00:38;;;;;;;20.90;5.00;;;;;;;7.05;100.00;99269.88;6277755;22;20453;-79
2023/12/13 06:03:04;;;;;;;24.17;7.10;;;;;;;7.07;100.00;99273.91;6305076;22;20042;-79
2023/12/13 06:05:29;;;;;;;23.00;6.65;;;;;;;7.02;100.00;99268.50;6277526;22;20420;-78
2023/12/13 06:07:54;;;;;;;18.67;5.40;;;;;;;6.99;100.00;99260.16;6304789;22;20259;-79
2023/12/13 06:10:20;;;;;;;18.42;5.80;;;;;;;6.93;100.00;99251.25;6304940;22;20009;-79
2023/12/13 06:12:46;;;;;;;23.38;5.97;;;;;;;7.07;100.00;99273.91;6305112;22;20126;-80
2023/12/13 06:15:11;;;;;;;21.23;5.65;;;;;;;7.03;100.00;99267.44;6277605;22;20065;-78
2023/12/13 06:17:36;;;;;;;21.20;5.55;;;;;;;7.05;100.00;99280.50;6277601;22;20331;-78
2023/12/13 06:20:03;;;;;;;18.67;6.32;;;;;;;7.01;100.00;99277.50;6277554;22;20045;-78
2023/12/13 06:22:28;;;;;;;18.83;6.25;;;;;;;7.02;100.00;99281.78;6306777;22;20007;-79
2023/12/13 06:24:53;;;;;;;22.42;6.10;;;;;;;6.96;100.00;99280.03;6306521;22;20424;-78
2023/12/13 06:27:19;;;;;;;21.35;5.70;;;;;;;6.99;100.00;99276.13;6279105;22;20003;-79
2023/12/13 06:29:45;;;;;;;24.45;6.07;;;;;;;6.96;100.00;99277.38;6278940;22;20007;-78
2023/12/13 06:32:10;;;;;;;26.38;6.13;;;;;;;6.99;100.00;99284.91;6306266;22;20010;-78
2023/12/13 06:34:35;;;;;;;25.25;6.45;;;;;;;7.00;100.00;99289.16;6306342;22;20010;-80
2023/12/13 06:37:01;;;;;;;22.63;6.72;;;;;;;6.99;100.00;99284.09;6306311;22;20082;-79
2023/12/13 06:39:26;;;;;;;20.58;6.00;;;;;;;6.99;100.00;99284.09;6306259;22;20053;-79
2023/12/13 06:41:51;;;;;;;26.55;6.80;;;;;;;6.98;100.00;99283.28;6306291;22;19999;-78
2023/12/13 06:44:17;;;;;;;18.67;5.88;;;;;;;6.99;100.00;99284.91;6306425;22;20336;-77
2023/12/13 06:46:42;;;;;;;21.30;6.13;;;;;;;6.97;100.00;99288.81;6278871;22;20085;-79
2023/12/13 06:49:09;;;;;;;23.63;7.45;;;;;;;7.00;100.00;99286.50;6306414;22;20034;-79
2023/12/13 06:51:35;;;;;;;20.33;6.45;;;;;;;7.01;100.00;99301.41;6278823;22;20361;-79
2023/12/13 06:54:00;;;;;;;24.45;6.30;;;;;;;6.97;100.00;99289.63;6306578;22;20034;-82
2023/12/13 06:56:25;;;;;;;20.52;6.75;;;;;;;6.96;100.00;99281.91;6306336;22;20056;-81
2023/12/13 06:58:51;;;;;;;27.60;7.53;;;;;;;6.98;100.00;99295.75;6306560;22;20427;-82
2023/12/13 07:01:16;;;;;;;25.85;6.82;;;;;;;6.99;100.00;99290.22;6307131;22;20065;-81
2023/12/13 07:03:41;;;;;;;31.20;7.22;;;;;;;6.98;100.00;99298.41;6306252;22;20010;-81
2023/12/13 07:06:07;;;;;;;27.15;7.05;;;;;;;6.98;100.00;99298.41;6278783;22;20086;-82
2023/12/13 07:08:34;;;;;;;26.88;7.78;;;;;;;6.90;100.00;99285.44;6306187;22;20082;-83
2023/12/13 07:11:01;;;;;;;26.13;7.35;;;;;;;6.92;100.00;99292.13;6279291;22;20003;-83
2023/12/13 07:13:26;;;;;;;22.73;6.50;;;;;;;6.93;100.00;99296.41;6307635;22;20003;-81
2023/12/13 07:15:52;;;;;;;20.80;7.55;;;;;;;6.97;100.00;99300.25;6306231;22;20014;-79
2023/12/13 07:18:18;;;;;;;17.17;6.50;;;;;;;6.97;100.00;99294.13;6278825;22;20094;-80
2023/12/13 07:20:43;;;;;;;24.45;8.57;;;;;;;6.96;100.00;99296.00;6278814;22;20033;-79
2023/12/13 07:23:08;;;;;;;21.10;7.30;;;;;;;6.89;100.00;99287.28;6306056;22;20011;-80
2023/12/13 07:25:34;;;;;;;23.23;8.32;;;;;;;6.92;100.00;99292.13;6278597;22;20235;-80
2023/12/13 07:28:00;;;;;;;26.10;8.95;;;;;;;6.95;100.00;99307.66;6305961;22;20133;-80
2023/12/13 07:30:25;;;;;;;27.05;9.40;;;;;;;6.98;100.00;99309.84;6278735;22;20000;-78
2023/12/13 07:32:53;;;;;;;24.33;8.57;;;;;;;6.96;100.00;99313.78;6305840;22;20013;-80
2023/12/13 07:35:18;;;;;;;27.85;6.88;;;;;;;6.92;100.00;99301.97;6278599;22;19999;-82
2023/12/13 07:37:44;;;;;;;20.95;7.97;;;;;;;6.85;100.00;99286.13;6305929;22;20007;-82
2023/12/13 07:40:10;;;;;;;26.10;9.32;;;;;;;6.76;100.00;99275.03;6306414;22;20004;-81
2023/12/13 07:42:35;;;;;;;16.83;7.20;;;;;;;6.78;100.00;99278.25;6279186;22;20329;-81
2023/12/13 07:45:00;;;;;;;20.65;7.68;;;;;;;6.77;100.00;99281.16;6306400;22;20008;-82
2023/12/13 07:47:26;;;;;;;17.73;6.78;;;;;;;6.95;100.00;99305.00;6306511;22;20086;-82
2023/12/13 07:49:53;;;;;;;24.33;8.45;;;;;;;6.94;100.00;99305.19;6279042;22;20007;-83
2023/12/13 07:52:18;;;;;;;26.90;7.10;;;;;;;6.90;100.00;99293.41;6279121;22;20383;-84
2023/12/13 07:54:43;;;;;;;27.05;8.90;;;;;;;6.96;100.00;99314.59;6279148;22;20011;-84
2023/12/13 07:57:17;;;;;;;21.63;8.25;;;;;;;6.91;100.00;99297.69;6306854;22;20013;-85
2023/12/13 07:59:43;;;;;;;18.75;7.70;;;;;;;6.99;100.00;99314.13;6279454;22;20017;-86
2023/12/13 08:02:08;;;;;;;24.45;8.15;;;;;;;6.96;100.00;99308.47;6279336;22;20429;-86
2023/12/13 08:04:33;;;;;;;23.00;7.55;;;;;;;6.93;100.00;99308.88;6306679;22;20030;-85
2023/12/13 08:06:59;;;;;;;20.70;8.35;;;;;;;6.91;100.00;99287.88;6306544;22;20463;-85
2023/12/13 08:09:24;;;;;;;23.13;8.73;;;;;;;6.98;100.00;99304.53;6306241;22;20010;-85
2023/12/13 08:11:49;;;;;;;20.58;7.57;;;;;;;6.95;100.00;99302.34;6306690;22;20357;-85
2023/12/13 08:14:15;;;;;;;22.20;8.27;;;;;;;6.95;100.00;99299.69;6279128;22;20488;-85
2023/12/13 08:16:41;;;;;;;21.88;8.27;;;;;;;6.97;100.00;99297.59;6306671;22;20003;-83
2023/12/13 08:19:07;;;;;;;25.33;7.68;;;;;;;7.05;100.00;99318.53;6278818;22;20007;-82
2023/12/13 08:21:32;;;;;;;18.27;7.82;;;;;;;7.02;100.00;99307.53;6279138;22;20057;-84
2023/12/13 08:23:58;;;;;;;28.13;9.43;;;;;;;7.05;100.00;99326.50;6306298;22;20003;-84
2023/12/13 08:26:25;;;;;;;21.35;9.50;;;;;;;6.99;100.00;99308.81;6306670;22;20083;-83
2023/12/13 08:28:51;;;;;;;27.77;8.77;;;;;;;7.03;100.00;99319.78;6306492;22;20094;-83
2023/12/13 08:31:17;;;;;;;22.95;8.43;;;;;;;7.03;100.00;99323.25;6306924;22;20428;-85
2023/12/13 08:33:42;;;;;;;24.80;9.00;;;;;;;7.08;100.00;99320.72;6306498;22;20049;-82
2023/12/13 08:36:10;;;;;;;23.17;8.23;;;;;;;7.13;100.00;99325.34;6279016;22;20014;-83
2023/12/13 08:38:35;;;;;;;29.25;10.65;;;;;;;7.06;100.00;99314.81;6306109;22;20053;-82
2023/12/13 08:41:00;;;;;;;29.50;9.80;;;;;;;7.10;100.00;99329.28;6305954;22;20417;-81
2023/12/13 08:43:26;;;;;;;29.17;9.57;;;;;;;7.07;100.00;99321.75;6305498;22;20328;-82
2023/12/13 08:45:51;;;;;;;25.13;9.82;;;;;;;7.19;100.00;99342.22;6305985;22;20447;-82
2023/12/13 08:48:17;;;;;;;27.60;8.68;;;;;;;7.18;100.00;99324.66;6278477;22;20006;-82
2023/12/13 08:50:42;;;;;;;27.35;10.65;;;;;;;7.20;100.00;99326.03;6278592;22;20003;-83
2023/12/13 08:53:08;;;;;;;26.20;9.43;;;;;;;7.26;100.00;99337.63;6278211;22;20089;-82
2023/12/13 08:55:33;;;;;;;29.85;10.90;;;;;;;7.23;100.00;99324.78;6305568;22;20199;-85
2023/12/13 08:57:58;;;;;;;26.80;9.20;;;;;;;7.28;100.00;99331.03;6305561;22;19999;-83
2023/12/13 09:00:24;;;;;;;26.13;9.48;;;;;;;7.28;100.00;99322.25;6305978;22;20007;-82
2023/12/13 09:02:49;;;;;;;31.85;9.18;;;;;;;7.38;100.00;99344.56;6278175;22;20094;-82
2023/12/13 09:05:15;;;;;;;21.30;9.30;;;;;;;7.33;100.00;99336.47;6305562;22;19999;-83
2023/12/13 09:07:40;;;;;;;22.05;8.80;;;;;;;7.42;100.00;99331.63;6278082;22;20007;-83
2023/12/13 09:10:08;;;;;;;22.67;8.82;;;;;;;7.44;100.00;99332.19;6305712;22;20015;-82
2023/12/13 09:12:33;;;;;;;26.05;8.65;;;;;;;7.57;100.00;99341.81;6305533;22;20003;-82
2023/12/13 09:14:58;;;;;;;25.67;9.88;;;;;;;7.64;100.00;99347.81;6278065;22;20056;-80
2023/12/13 09:17:24;;;;;;;23.42;9.10;;;;;;;7.65;100.00;99349.44;6305582;22;20463;-83
2023/12/13 09:19:49;;;;;;;24.88;9.40;;;;;;;7.75;100.00;99357.63;6278020;22;20379;-82
2023/12/13 09:22:16;;;;;;;25.77;8.05;;;;;;;7.79;100.00;99350.81;6278161;22;20003;-82
2023/12/13 09:24:41;;;;;;;28.13;8.93;;;;;;;7.90;100.00;99351.84;6277957;22;20007;-82
2023/12/13 09:27:06;;;;;;;22.05;7.88;;;;;;;7.82;100.00;99350.38;6305565;22;20467;-83
2023/12/13 09:29:32;;;;;;;16.88;7.35;;;;;;;7.82;100.00;99347.72;6278048;22;20007;-82
2023/12/13 09:31:58;;;;;;;23.70;7.60;;;;;;;7.83;100.00;99357.31;6278128;22;20030;-82
2023/12/13 09:34:23;;;;;;;16.77;7.53;;;;;;;7.81;100.00;99364.72;6278232;22;20428;-82
2023/12/13 09:36:49;;;;;;;21.92;8.75;;;;;;;7.79;100.00;99364.09;6277710;22;20014;-82
2023/12/13 09:39:16;;;;;;;22.83;9.25;;;;;;;7.78;100.00;99370.47;6277956;22;20014;-82
2023/12/13 09:42:02;;;;;;;24.30;9.13;;;;;;;7.83;100.00;99370.63;6278092;22;20003;-80
2023/12/13 09:44:29;;;;;;;21.38;8.77;;;;;;;7.78;100.00;99367.81;6278072;22;20004;-81
2023/12/13 09:46:57;;;;;;;18.30;7.07;;;;;;;7.77;100.00;99377.66;6277943;22;20090;-81
2023/12/13 09:49:23;;;;;;;27.20;8.27;;;;;;;7.88;100.00;99384.03;6277901;22;20007;-81
2023/12/13 09:51:50;;;;;;;22.17;7.72;;;;;;;7.83;100.00;99391.91;6278296;22;20045;-81
2023/12/13 09:54:15;;;;;;;23.02;8.48;;;;;;;7.73;100.00;99387.13;6305626;22;20010;-81
2023/12/13 09:56:40;;;;;;;14.27;7.35;;;;;;;7.76;100.00;99393.84;6279097;22;20328;-81
2023/12/13 09:59:06;;;;;;;18.08;7.18;;;;;;;7.73;100.00;99396.97;6306669;22;20011;-81
2023/12/13 10:01:31;;;;;;;23.58;7.70;;;;;;;7.74;100.00;99402.06;6306544;22;20003;-81
2023/12/13 10:03:57;;;;;;;21.45;8.00;;;;;;;7.73;100.00;99395.13;6279003;22;20007;-81
2023/12/13 10:06:23;;;;;;;19.58;7.70;;;;;;;7.78;100.00;99408.53;6278954;22;20045;-81
2023/12/13 10:08:56;;;;;;;17.85;7.82;;;;;;;7.67;100.00;99405.88;6306357;22;20003;-81
2023/12/13 10:11:23;;;;;;;21.42;8.82;;;;;;;7.61;100.00;99398.81;6306590;22;20003;-81
2023/12/13 10:13:48;;;;;;;21.98;8.20;;;;;;;7.66;100.00;99405.06;6278948;22;20045;-80
2023/12/13 10:16:14;;;;;;;15.30;8.13;;;;;;;7.66;100.00;99404.25;6306566;22;20039;-81
2023/12/13 10:18:40;;;;;;;18.00;8.93;;;;;;;7.64;100.00;99409.00;6306386;22;20080;-81
2023/12/13 10:21:08;;;;;;;19.98;7.63;;;;;;;7.62;100.00;99417.22;6279167;22;20018;-81
2023/12/13 10:23:34;;;;;;;26.23;9.25;;;;;;;7.63;100.00;99421.50;6278987;22;20006;-80
2023/12/13 10:26:00;;;;;;;16.63;8.50;;;;;;;7.64;100.00;99423.09;6278824;22;20324;-81
2023/12/13 10:28:26;;;;;;;22.13;9.35;;;;;;;7.60;100.00;99415.81;6306382;22;20018;-81
2023/12/13 10:30:51;;;;;;;22.60;8.27;;;;;;;7.58;100.00;99418.72;6306554;22;20003;-83
2023/12/13 10:33:17;;;;;;;19.30;8.02;;;;;;;7.60;100.00;99421.94;6279140;22;20017;-81
2023/12/13 10:35:42;;;;;;;23.17;7.88;;;;;;;7.66;100.00;99421.03;6306563;22;20425;-81
2023/12/13 10:38:14;;;;;;;19.10;8.52;;;;;;;7.68;100.00;99418.13;6306525;22;20459;-81
2023/12/13 10:40:43;;;;;;;15.75;8.20;;;;;;;7.66;100.00;99422.88;6306403;22;19999;-81
2023/12/13 10:43:11;;;;;;;15.32;8.18;;;;;;;7.70;100.00;99427.50;6306245;22;20014;-81
2023/12/13 10:45:44;;;;;;;17.20;7.55;;;;;;;7.64;100.00;99401.81;6306467;22;20026;-81
2023/12/13 10:48:10;;;;;;;16.75;7.97;;;;;;;7.70;100.00;99411.53;6278762;22;20011;-82
2023/12/13 10:50:37;;;;;;;21.38;9.65;;;;;;;7.71;100.00;99407.03;6306278;22;20007;-82
2023/12/13 10:53:13;;;;;;;17.50;8.60;;;;;;;7.72;100.00;99406.81;6306493;22;20004;-81
2023/12/13 10:55:39;;;;;;;13.70;7.15;;;;;;;7.72;100.00;99404.13;6279036;22;20007;-81
2023/12/13 10:58:05;;;;;;;18.38;8.25;;;;;;;7.77;100.00;99400.78;6306111;22;20375;-82
2023/12/13 11:00:32;;;;;;;20.27;8.68;;;;;;;7.74;100.00;99407.38;6278863;22;20007;-82
2023/12/13 11:03:09;;;;;;;22.42;8.38;;;;;;;7.89;100.00;99414.91;6306497;22;20328;-82
2023/12/13 11:05:35;;;;;;;23.27;8.32;;;;;;;7.89;100.00;99411.44;6305731;22;20011;-85
2023/12/13 11:08:00;;;;;;;19.40;8.00;;;;;;;7.85;100.00;99412.97;6306117;22;20121;-84
2023/12/13 11:10:25;;;;;;;15.88;8.27;;;;;;;7.78;100.00;99415.72;6306765;22;20078;-82
2023/12/13 11:12:52;;;;;;;24.25;9.50;;;;;;;7.86;100.00;99426.03;6278854;22;20015;-82
2023/12/13 11:15:18;;;;;;;16.70;8.10;;;;;;;7.85;100.00;99421.75;6306175;22;20007;-82
2023/12/13 11:17:48;;;;;;;20.20;7.65;;;;;;;7.89;100.00;99436.22;6278620;22;20003;-83
2023/12/13 11:20:14;;;;;;;14.20;7.68;;;;;;;7.94;100.00;99436.31;6306189;22;20078;-82